createdAt,value
2022-10-03T00:00:30.842Z,75.90
2022-10-03T00:01:31.036Z,75.90
2022-10-03T00:02:31.254Z,76.01
2022-10-03T00:03:31.367Z,75.94
2022-10-03T00:04:31.569Z,75.80
2022-10-03T00:05:31.721Z,75.73
2022-10-03T00:06:31.885Z,75.70
2022-10-03T00:07:32.062Z,76.04
2022-10-03T00:08:32.232Z,76.14
2022-10-03T00:09:32.422Z,76.04
2022-10-03T00:10:32.592Z,76.04
2022-10-03T00:11:32.773Z,75.84
2022-10-03T00:12:32.949Z,75.90
2022-10-03T00:13:33.111Z,76.04
2022-10-03T00:14:33.303Z,76.04
2022-10-03T00:15:33.481Z,76.25
2022-10-03T00:16:33.695Z,76.34
2022-10-03T00:17:33.831Z,76.25
2022-10-03T00:18:33.993Z,76.25
2022-10-03T00:19:34.193Z,76.34
2022-10-03T00:20:34.332Z,76.45
2022-10-03T00:21:34.513Z,76.55
2022-10-03T00:22:34.691Z,76.45
2022-10-03T00:23:34.994Z,76.55
2022-10-03T00:24:35.031Z,76.51
2022-10-03T00:25:35.210Z,76.31
2022-10-03T00:26:35.378Z,76.21
2022-10-03T00:27:35.551Z,76.10
2022-10-03T00:28:35.743Z,76.01
2022-10-03T00:29:35.901Z,75.90
2022-10-03T00:30:36.071Z,76.01
2022-10-03T00:31:36.456Z,75.97
2022-10-03T00:32:36.415Z,75.87
2022-10-03T00:33:36.594Z,75.67
2022-10-03T00:34:36.791Z,75.67
2022-10-03T00:35:36.950Z,75.56
2022-10-03T00:36:37.111Z,75.67
2022-10-03T00:37:37.296Z,75.67
2022-10-03T00:38:37.472Z,75.43
2022-10-03T00:39:37.642Z,75.32
2022-10-03T00:40:37.822Z,75.22
2022-10-03T00:41:38.189Z,75.32
2022-10-03T00:42:38.171Z,75.32
2022-10-03T00:43:38.372Z,75.12
2022-10-03T00:44:38.513Z,75.02
2022-10-03T00:45:38.691Z,75.02
2022-10-03T00:46:38.921Z,74.92
2022-10-03T00:47:39.061Z,74.82
2022-10-03T00:48:39.254Z,74.82
2022-10-03T00:49:39.442Z,74.58
2022-10-03T00:50:39.601Z,74.68
2022-10-03T00:51:40.017Z,74.58
2022-10-03T00:52:39.961Z,74.58
2022-10-03T00:53:40.159Z,74.78
2022-10-03T00:54:40.339Z,74.78
2022-10-03T00:55:40.491Z,74.68
2022-10-03T00:56:40.669Z,74.48
2022-10-03T00:57:40.831Z,74.38
2022-10-03T00:58:41.042Z,74.38
2022-10-03T00:59:43.281Z,74.44
2022-10-03T01:00:41.400Z,74.17
2022-10-03T01:01:41.915Z,74.14
2022-10-03T01:02:41.696Z,74.14
2022-10-03T01:03:41.881Z,74.04
2022-10-03T01:04:42.051Z,73.93
2022-10-03T01:05:42.262Z,74.04
2022-10-03T01:06:42.393Z,73.93
2022-10-03T01:07:42.570Z,73.93
2022-10-03T01:08:42.775Z,73.93
2022-10-03T01:09:42.941Z,73.93
2022-10-03T01:10:43.100Z,73.70
2022-10-03T01:11:43.359Z,73.60
2022-10-03T01:12:43.465Z,73.39
2022-10-03T01:13:43.661Z,73.39
2022-10-03T01:14:43.801Z,73.49
2022-10-03T01:15:44.017Z,73.39
2022-10-03T01:16:44.176Z,73.09
2022-10-03T01:17:44.350Z,73.19
2022-10-03T01:18:44.541Z,73.19
2022-10-03T01:19:44.698Z,72.99
2022-10-03T01:20:44.861Z,73.09
2022-10-03T01:21:45.059Z,73.19
2022-10-03T01:22:45.203Z,72.99
2022-10-03T01:23:45.384Z,72.89
2022-10-03T01:24:45.551Z,72.99
2022-10-03T01:25:45.740Z,73.09
2022-10-03T01:26:45.911Z,72.99
2022-10-03T01:27:46.092Z,73.09
2022-10-03T01:28:46.271Z,72.99
2022-10-03T01:29:46.450Z,72.89
2022-10-03T01:30:46.620Z,72.89
2022-10-03T01:31:46.892Z,72.89
2022-10-03T01:32:46.975Z,72.75
2022-10-03T01:33:47.141Z,72.65
2022-10-03T01:34:47.282Z,72.75
2022-10-03T01:35:47.463Z,72.65
2022-10-03T01:36:47.621Z,72.55
2022-10-03T01:37:47.800Z,72.24
2022-10-03T01:38:47.971Z,72.34
2022-10-03T01:39:48.150Z,72.04
2022-10-03T01:40:48.370Z,72.14
2022-10-03T01:41:48.530Z,72.14
2022-10-03T01:42:48.671Z,72.34
2022-10-03T01:43:48.870Z,72.14
2022-10-03T01:44:49.000Z,72.34
2022-10-03T01:45:49.210Z,72.04
2022-10-03T01:46:49.400Z,72.24
2022-10-03T01:47:49.550Z,72.24
2022-10-03T01:48:49.730Z,72.14
2022-10-03T01:49:49.917Z,72.14
2022-10-03T01:50:50.085Z,72.14
2022-10-03T01:51:50.250Z,72.14
2022-10-03T01:52:50.409Z,71.84
2022-10-03T01:53:50.601Z,72.14
2022-10-03T01:54:50.742Z,72.04
2022-10-03T01:55:50.938Z,72.04
2022-10-03T01:56:51.098Z,72.14
2022-10-03T01:57:51.260Z,72.04
2022-10-03T01:58:51.444Z,72.24
2022-10-03T01:59:51.631Z,72.24
2022-10-03T02:00:51.846Z,72.14
2022-10-03T02:01:52.021Z,72.04
2022-10-03T02:02:52.171Z,72.04
2022-10-03T02:03:52.370Z,72.14
2022-10-03T02:04:52.548Z,72.24
2022-10-03T02:05:52.682Z,72.24
2022-10-03T02:06:52.860Z,72.14
2022-10-03T02:07:53.031Z,72.14
2022-10-03T02:08:53.230Z,72.14
2022-10-03T02:09:53.375Z,72.14
2022-10-03T02:10:53.541Z,72.14
2022-10-03T02:11:53.721Z,72.14
2022-10-03T02:12:53.891Z,72.04
2022-10-03T02:13:54.088Z,71.94
2022-10-03T02:14:54.231Z,71.84
2022-10-03T02:15:54.431Z,71.94
2022-10-03T02:16:54.561Z,72.04
2022-10-03T02:17:54.731Z,72.04
2022-10-03T02:18:54.902Z,72.14
2022-10-03T02:19:55.080Z,72.04
2022-10-03T02:20:55.260Z,72.04
2022-10-03T02:21:55.430Z,71.94
2022-10-03T02:22:55.605Z,71.84
2022-10-03T02:23:55.814Z,71.73
2022-10-03T02:24:55.950Z,71.84
2022-10-03T02:25:56.126Z,72.04
2022-10-03T02:26:58.568Z,71.94
2022-10-03T02:27:56.516Z,72.08
2022-10-03T02:28:56.654Z,72.14
2022-10-03T02:29:56.830Z,72.04
2022-10-03T02:30:57.000Z,72.04
2022-10-03T02:31:57.245Z,71.94
2022-10-03T02:32:57.350Z,71.94
2022-10-03T02:33:57.521Z,72.14
2022-10-03T02:34:57.700Z,72.04
2022-10-03T02:35:57.874Z,72.04
2022-10-03T02:36:58.039Z,71.94
2022-10-03T02:37:58.248Z,71.84
2022-10-03T02:38:58.381Z,71.94
2022-10-03T02:39:58.571Z,71.94
2022-10-03T02:40:58.780Z,71.94
2022-10-03T02:41:58.919Z,71.94
2022-10-03T02:42:59.111Z,71.84
2022-10-03T02:43:59.254Z,71.84
2022-10-03T02:44:59.423Z,71.73
2022-10-03T02:45:59.671Z,71.84
2022-10-03T02:46:59.780Z,71.84
2022-10-03T02:48:19.723Z,71.73
2022-10-03T02:49:01.127Z,71.73
2022-10-03T02:50:00.293Z,71.73
2022-10-03T02:51:00.463Z,71.94
2022-10-03T02:52:00.631Z,71.84
2022-10-03T02:53:01.010Z,71.84
2022-10-03T02:54:00.993Z,71.94
2022-10-03T02:55:01.162Z,71.94
2022-10-03T02:56:01.338Z,72.04
2022-10-03T02:57:01.514Z,72.04
2022-10-03T02:58:01.701Z,72.04
2022-10-03T02:59:01.857Z,71.94
2022-10-03T03:00:02.020Z,71.94
2022-10-03T03:01:02.217Z,71.94
2022-10-03T03:02:02.427Z,71.94
2022-10-03T03:03:02.600Z,71.94
2022-10-03T03:04:02.740Z,71.94
2022-10-03T03:05:02.933Z,71.84
2022-10-03T03:06:03.080Z,71.84
2022-10-03T03:07:03.250Z,71.84
2022-10-03T03:08:03.449Z,71.84
2022-10-03T03:09:03.612Z,71.94
2022-10-03T03:10:03.783Z,71.94
2022-10-03T03:11:03.957Z,71.94
2022-10-03T03:12:04.133Z,72.04
2022-10-03T03:13:04.320Z,72.04
2022-10-03T03:14:04.502Z,71.94
2022-10-03T03:15:04.671Z,71.94
2022-10-03T03:16:04.880Z,72.04
2022-10-03T03:17:05.000Z,71.94
2022-10-03T03:18:05.192Z,71.94
2022-10-03T03:19:05.371Z,71.94
2022-10-03T03:20:05.532Z,71.84
2022-10-03T03:21:05.690Z,71.94
2022-10-03T03:22:05.882Z,71.94
2022-10-03T03:23:06.059Z,71.84
2022-10-03T03:24:06.209Z,71.84
2022-10-03T03:25:06.349Z,71.84
2022-10-03T03:26:06.519Z,71.84
2022-10-03T03:27:06.702Z,71.94
2022-10-03T03:28:07.448Z,71.84
2022-10-03T03:29:07.058Z,71.73
2022-10-03T03:30:07.210Z,71.77
2022-10-03T03:31:07.463Z,71.84
2022-10-03T03:32:07.551Z,71.73
2022-10-03T03:33:07.749Z,71.73
2022-10-03T03:34:07.900Z,71.64
2022-10-03T03:35:08.069Z,71.73
2022-10-03T03:36:08.292Z,71.73
2022-10-03T03:37:08.440Z,71.73
2022-10-03T03:38:08.619Z,71.64
2022-10-03T03:39:08.759Z,71.77
2022-10-03T03:40:08.946Z,71.77
2022-10-03T03:41:09.110Z,71.88
2022-10-03T03:42:09.322Z,71.97
2022-10-03T03:43:09.469Z,72.08
2022-10-03T03:44:09.619Z,71.97
2022-10-03T03:45:09.805Z,72.08
2022-10-03T03:46:09.995Z,72.17
2022-10-03T03:47:10.150Z,72.31
2022-10-03T03:48:10.330Z,72.61
2022-10-03T03:49:10.509Z,72.61
2022-10-03T03:50:10.680Z,72.72
2022-10-03T03:51:10.839Z,72.61
2022-10-03T03:52:11.030Z,72.92
2022-10-03T03:53:11.239Z,72.82
2022-10-03T03:54:11.380Z,72.82
2022-10-03T03:55:11.559Z,72.82
2022-10-03T03:56:11.728Z,72.92
2022-10-03T03:57:11.929Z,72.92
2022-10-03T03:58:12.120Z,72.89
2022-10-03T03:59:12.261Z,72.92
2022-10-03T04:00:12.420Z,72.92
2022-10-03T04:01:12.650Z,72.78
2022-10-03T04:02:12.803Z,72.92
2022-10-03T04:03:12.970Z,73.02
2022-10-03T04:04:13.152Z,72.89
2022-10-03T04:05:13.332Z,72.68
2022-10-03T04:06:13.480Z,72.68
2022-10-03T04:07:15.409Z,72.68
2022-10-03T04:08:13.846Z,72.82
2022-10-03T04:09:14.021Z,72.82
2022-10-03T04:10:14.200Z,72.82
2022-10-03T04:11:14.359Z,72.82
2022-10-03T04:12:14.539Z,72.78
2022-10-03T04:13:14.735Z,72.78
2022-10-03T04:14:14.869Z,72.78
2022-10-03T04:15:15.029Z,72.78
2022-10-03T04:16:15.297Z,72.78
2022-10-03T04:17:15.398Z,72.68
2022-10-03T04:18:15.579Z,72.68
2022-10-03T04:19:15.727Z,72.58
2022-10-03T04:20:15.900Z,72.58
2022-10-03T04:21:19.010Z,72.58
2022-10-03T04:22:16.243Z,72.58
2022-10-03T04:23:16.430Z,72.58
2022-10-03T04:24:16.567Z,72.38
2022-10-03T04:25:16.729Z,72.48
2022-10-03T04:26:16.889Z,72.38
2022-10-03T04:27:17.071Z,72.38
2022-10-03T04:28:17.310Z,72.28
2022-10-03T04:29:17.418Z,72.17
2022-10-03T04:30:17.581Z,72.41
2022-10-03T04:31:17.809Z,72.41
2022-10-03T04:32:17.922Z,72.41
2022-10-03T04:33:18.112Z,72.31
2022-10-03T04:34:18.279Z,72.31
2022-10-03T04:35:18.463Z,72.41
2022-10-03T04:36:18.629Z,72.52
2022-10-03T04:37:18.807Z,72.52
2022-10-03T04:38:18.990Z,72.52
2022-10-03T04:39:19.157Z,72.75
2022-10-03T04:40:19.319Z,72.75
2022-10-03T04:41:19.492Z,73.06
2022-10-03T04:42:19.654Z,73.16
2022-10-03T04:43:19.839Z,73.36
2022-10-03T04:44:19.978Z,73.50
2022-10-03T04:45:20.149Z,73.60
2022-10-03T04:46:20.357Z,73.80
2022-10-03T04:47:20.519Z,73.90
2022-10-03T04:48:20.697Z,74.10
2022-10-03T04:49:20.836Z,74.01
2022-10-03T04:50:21.019Z,74.01
2022-10-03T04:51:21.179Z,74.21
2022-10-03T04:52:21.339Z,74.24
2022-10-03T04:53:21.525Z,74.24
2022-10-03T04:54:21.668Z,74.34
2022-10-03T04:55:21.856Z,74.55
2022-10-03T04:56:22.019Z,74.65
2022-10-03T04:57:22.190Z,74.55
2022-10-03T04:58:22.360Z,74.55
2022-10-03T04:59:22.519Z,74.55
2022-10-03T05:00:22.679Z,74.75
2022-10-03T05:01:22.884Z,74.85
2022-10-03T05:02:23.079Z,74.85
2022-10-03T05:03:23.218Z,74.95
2022-10-03T05:04:23.370Z,75.05
2022-10-03T05:05:23.529Z,75.16
2022-10-03T05:06:23.718Z,75.16
2022-10-03T05:07:23.899Z,74.95
2022-10-03T05:08:24.092Z,74.95
2022-10-03T05:09:24.253Z,74.95
2022-10-03T05:10:24.419Z,74.85
2022-10-03T05:11:24.618Z,74.85
2022-10-03T05:12:24.799Z,74.75
2022-10-03T05:13:24.977Z,74.75
2022-10-03T05:14:25.118Z,74.65
2022-10-03T05:15:25.324Z,74.55
2022-10-03T05:16:25.575Z,74.55
2022-10-03T05:17:25.659Z,74.51
2022-10-03T05:18:27.159Z,74.51
2022-10-03T05:19:26.038Z,74.51
2022-10-03T05:20:26.187Z,74.51
2022-10-03T05:21:26.380Z,74.41
2022-10-03T05:22:26.537Z,74.31
2022-10-03T05:23:26.748Z,74.21
2022-10-03T05:24:26.928Z,73.97
2022-10-03T05:25:27.088Z,73.87
2022-10-03T05:27:28.438Z,73.66
2022-10-03T05:28:27.676Z,73.66
2022-10-03T05:29:27.781Z,73.57
2022-10-03T05:30:27.928Z,73.36
2022-10-03T05:31:28.134Z,73.36
2022-10-03T05:32:28.268Z,73.12
2022-10-03T05:33:28.488Z,73.02
2022-10-03T05:34:28.636Z,72.92
2022-10-03T05:35:28.830Z,72.61
2022-10-03T05:36:28.987Z,72.72
2022-10-03T05:37:29.156Z,72.52
2022-10-03T05:38:29.339Z,72.38
2022-10-03T05:39:29.528Z,71.88
2022-10-03T05:40:29.698Z,71.88
2022-10-03T05:41:29.878Z,71.67
2022-10-03T05:42:30.053Z,71.57
2022-10-03T05:43:30.231Z,71.47
2022-10-03T05:44:30.408Z,71.47
2022-10-03T05:45:30.688Z,71.37
2022-10-03T05:46:30.742Z,71.26
2022-10-03T05:47:30.918Z,71.16
2022-10-03T05:48:31.098Z,71.26
2022-10-03T05:49:31.258Z,71.26
2022-10-03T05:50:31.419Z,71.26
2022-10-03T05:51:31.608Z,71.37
2022-10-03T05:52:31.768Z,71.33
2022-10-03T05:53:31.949Z,71.23
2022-10-03T05:54:32.129Z,71.23
2022-10-03T05:55:32.290Z,71.23
2022-10-03T05:56:32.467Z,71.03
2022-10-03T05:57:32.669Z,71.03
2022-10-03T05:58:32.847Z,71.03
2022-10-03T05:59:33.028Z,70.52
2022-10-03T06:00:33.199Z,70.52
2022-10-03T06:01:33.359Z,70.52
2022-10-03T06:02:33.656Z,70.42
2022-10-03T06:03:33.784Z,70.42
2022-10-03T06:04:33.881Z,70.21
2022-10-03T06:05:34.068Z,70.01
2022-10-03T06:06:34.264Z,70.01
2022-10-03T06:07:34.386Z,70.01
2022-10-03T06:08:34.568Z,69.81
2022-10-03T06:09:34.718Z,69.81
2022-10-03T06:10:34.878Z,69.61
2022-10-03T06:11:35.048Z,69.71
2022-10-03T06:12:35.208Z,69.57
2022-10-03T06:13:35.416Z,69.61
2022-10-03T06:14:35.565Z,69.57
2022-10-03T06:15:35.739Z,69.48
2022-10-03T06:16:35.908Z,69.37
2022-10-03T06:17:38.681Z,69.07
2022-10-03T06:18:37.329Z,69.17
2022-10-03T06:19:36.438Z,69.27
2022-10-03T06:20:36.619Z,69.07
2022-10-03T06:21:37.107Z,68.73
2022-10-03T06:22:36.958Z,68.63
2022-10-03T06:23:37.189Z,68.94
2022-10-03T06:24:37.338Z,68.84
2022-10-03T06:25:37.492Z,68.73
2022-10-03T06:26:37.716Z,68.53
2022-10-03T06:27:37.838Z,68.63
2022-10-03T06:28:38.018Z,68.43
2022-10-03T06:29:38.215Z,68.43
2022-10-03T06:30:38.370Z,68.23
2022-10-03T06:31:38.884Z,68.19
2022-10-03T06:32:38.688Z,67.99
2022-10-03T06:33:38.861Z,67.89
2022-10-03T06:34:39.069Z,67.69
2022-10-03T06:35:39.196Z,67.66
2022-10-03T06:36:39.383Z,67.46
2022-10-03T06:37:39.561Z,67.35
2022-10-03T06:38:39.719Z,67.05
2022-10-03T06:39:39.898Z,67.05
2022-10-03T06:40:40.064Z,67.25
2022-10-03T06:41:40.604Z,67.15
2022-10-03T06:42:40.428Z,67.05
2022-10-03T06:43:40.580Z,67.15
2022-10-03T06:44:40.758Z,66.95
2022-10-03T06:45:40.958Z,67.02
2022-10-03T06:46:41.109Z,66.52
2022-10-03T06:47:41.341Z,66.61
2022-10-03T06:48:41.449Z,66.72
2022-10-03T06:49:41.638Z,66.82
2022-10-03T06:50:41.821Z,66.11
2022-10-03T06:51:42.290Z,66.41
2022-10-03T06:52:42.208Z,66.21
2022-10-03T06:53:42.349Z,66.01
2022-10-03T06:54:42.529Z,65.98
2022-10-03T06:55:42.728Z,66.08
2022-10-03T06:56:46.392Z,65.67
2022-10-03T06:57:44.099Z,65.57
2022-10-03T06:58:43.257Z,65.67
2022-10-03T06:59:43.437Z,65.98
2022-10-03T07:00:43.599Z,66.18
2022-10-03T07:01:44.200Z,66.08
2022-10-03T07:02:44.006Z,65.98
2022-10-03T07:03:44.117Z,65.57
2022-10-03T07:04:44.299Z,65.67
2022-10-03T07:05:44.491Z,65.98
2022-10-03T07:06:44.668Z,65.88
2022-10-03T07:07:44.879Z,65.78
2022-10-03T07:08:45.029Z,65.67
2022-10-03T07:09:45.209Z,65.81
2022-10-03T07:10:45.388Z,65.91
2022-10-03T07:11:45.569Z,66.41
2022-10-03T07:12:45.769Z,66.41
2022-10-03T07:13:45.918Z,66.28
2022-10-03T07:14:46.089Z,66.08
2022-10-03T07:16:08.854Z,65.78
2022-10-03T07:16:47.468Z,65.88
2022-10-03T07:17:46.609Z,65.24
2022-10-03T07:18:46.780Z,65.04
2022-10-03T07:19:46.933Z,65.14
2022-10-03T07:20:47.118Z,65.14
2022-10-03T07:21:47.301Z,64.90
2022-10-03T07:22:47.469Z,64.90
2022-10-03T07:23:47.631Z,64.30
2022-10-03T07:24:47.787Z,64.10
2022-10-03T07:25:47.971Z,63.87
2022-10-03T07:26:48.151Z,63.76
2022-10-03T07:27:51.159Z,63.76
2022-10-03T07:28:48.479Z,63.06
2022-10-03T07:29:48.671Z,63.73
2022-10-03T07:30:48.889Z,62.90
2022-10-03T07:31:49.000Z,62.40
2022-10-03T07:32:49.160Z,62.09
2022-10-03T07:33:49.310Z,61.99
2022-10-03T07:34:49.469Z,61.59
2022-10-03T07:35:49.629Z,61.46
2022-10-03T07:36:49.790Z,61.56
2022-10-03T07:37:49.970Z,61.76
2022-10-03T07:38:50.109Z,61.83
2022-10-03T07:39:50.310Z,61.46
2022-10-03T07:40:50.460Z,61.16
2022-10-03T07:41:50.658Z,60.96
2022-10-03T07:42:50.840Z,61.25
2022-10-03T07:43:50.993Z,61.05
2022-10-03T07:44:51.150Z,61.59
2022-10-03T07:45:51.331Z,62.09
2022-10-03T07:46:51.491Z,61.69
2022-10-03T07:47:51.692Z,61.69
2022-10-03T07:48:51.865Z,62.09
2022-10-03T07:49:52.020Z,62.29
2022-10-03T07:50:52.201Z,62.12
2022-10-03T07:51:52.400Z,62.52
2022-10-03T07:52:52.570Z,62.63
2022-10-03T07:53:52.728Z,62.73
2022-10-03T07:54:52.901Z,62.73
2022-10-03T07:55:53.091Z,62.52
2022-10-03T07:56:53.252Z,62.32
2022-10-03T07:57:53.431Z,62.52
2022-10-03T07:58:53.602Z,61.99
2022-10-03T07:59:53.781Z,61.99
2022-10-03T08:00:53.962Z,61.99
2022-10-03T08:01:54.120Z,61.69
2022-10-03T08:02:54.373Z,61.16
2022-10-03T08:03:54.600Z,60.85
2022-10-03T08:04:54.642Z,60.65
2022-10-03T08:05:54.820Z,61.16
2022-10-03T08:06:54.980Z,61.05
2022-10-03T08:07:55.174Z,61.16
2022-10-03T08:08:55.311Z,61.16
2022-10-03T08:09:55.470Z,61.33
2022-10-03T08:10:55.656Z,60.75
2022-10-03T08:11:55.810Z,60.85
2022-10-03T08:12:56.011Z,60.25
2022-10-03T08:13:56.152Z,60.85
2022-10-03T08:14:56.340Z,60.88
2022-10-03T08:15:56.534Z,61.25
2022-10-03T08:16:56.681Z,60.85
2022-10-03T08:17:56.852Z,61.13
2022-10-03T08:18:57.039Z,60.93
2022-10-03T08:19:57.207Z,59.79
2022-10-03T08:20:57.362Z,59.28
2022-10-03T08:21:57.531Z,59.06
2022-10-03T08:22:57.741Z,59.06
2022-10-03T08:23:57.911Z,58.75
2022-10-03T08:25:01.900Z,58.86
2022-10-03T08:25:58.232Z,58.75
2022-10-03T08:26:58.401Z,58.73
2022-10-03T08:27:58.607Z,58.09
2022-10-03T08:28:58.762Z,57.46
2022-10-03T08:29:59.135Z,56.51
2022-10-03T08:30:59.169Z,55.20
2022-10-03T08:31:59.283Z,55.47
2022-10-03T08:32:59.472Z,54.47
2022-10-03T08:33:59.623Z,53.87
2022-10-03T08:34:59.803Z,54.07
2022-10-03T08:35:59.988Z,53.97
2022-10-03T08:37:00.172Z,53.85
2022-10-03T08:38:00.353Z,52.82
2022-10-03T08:39:00.523Z,52.19
2022-10-03T08:40:00.692Z,51.62
2022-10-03T08:41:00.882Z,49.70
2022-10-03T08:42:01.042Z,48.40
2022-10-03T08:43:01.242Z,48.32
2022-10-03T08:44:01.382Z,48.79
2022-10-03T08:45:01.575Z,49.84
2022-10-03T08:46:01.802Z,50.87
2022-10-03T08:47:01.901Z,51.99
2022-10-03T08:48:02.064Z,52.82
2022-10-03T08:49:02.223Z,53.34
2022-10-03T08:50:05.566Z,53.77
2022-10-03T08:51:02.562Z,54.27
2022-10-03T08:52:02.736Z,54.80
2022-10-03T08:53:02.954Z,54.83
2022-10-03T08:54:03.104Z,55.23
2022-10-03T08:55:03.273Z,55.66
2022-10-03T08:56:03.445Z,56.36
2022-10-03T08:57:03.664Z,56.46
2022-10-03T08:58:03.824Z,56.19
2022-10-03T08:59:03.974Z,56.51
2022-10-03T09:00:04.125Z,56.92
2022-10-03T09:01:04.324Z,57.42
2022-10-03T09:02:04.642Z,57.32
2022-10-03T09:03:31.938Z,57.70
2022-10-03T09:04:05.844Z,56.99
2022-10-03T09:05:05.014Z,56.76
2022-10-03T09:06:05.194Z,56.56
2022-10-03T09:07:17.063Z,56.56
2022-10-03T09:08:06.564Z,56.16
2022-10-03T09:09:05.715Z,56.34
2022-10-03T09:10:05.884Z,55.38
2022-10-03T09:11:06.056Z,54.02
2022-10-03T09:12:06.215Z,52.49
2022-10-03T09:13:06.435Z,52.07
2022-10-03T09:14:06.545Z,50.64
2022-10-03T09:15:06.745Z,50.82
2022-10-03T09:16:06.970Z,49.74
2022-10-03T09:17:07.073Z,48.48
2022-10-03T09:18:07.245Z,46.84
2022-10-03T09:19:07.416Z,46.96
2022-10-03T09:20:07.586Z,46.66
2022-10-03T09:21:07.758Z,47.18
2022-10-03T09:22:07.907Z,47.63
2022-10-03T09:23:08.096Z,46.00
2022-10-03T09:24:08.236Z,45.82
2022-10-03T09:25:08.408Z,45.86
2022-10-03T09:26:08.597Z,46.26
2022-10-03T09:27:08.775Z,45.40
2022-10-03T09:28:09.013Z,44.24
2022-10-03T09:29:09.141Z,43.35
2022-10-03T09:30:09.349Z,43.15
2022-10-03T09:31:09.556Z,43.64
2022-10-03T09:32:09.677Z,43.88
2022-10-03T09:33:10.027Z,45.62
2022-10-03T09:34:10.057Z,46.26
2022-10-03T09:35:10.198Z,46.14
2022-10-03T09:36:10.408Z,46.31
2022-10-03T09:37:10.558Z,46.42
2022-10-03T09:38:10.767Z,46.01
2022-10-03T09:39:10.929Z,45.52
2022-10-03T09:40:11.071Z,45.22
2022-10-03T09:41:11.266Z,45.02
2022-10-03T09:42:11.381Z,45.44
2022-10-03T09:43:11.608Z,46.46
2022-10-03T09:44:11.802Z,46.88
2022-10-03T09:45:11.978Z,47.40
2022-10-03T09:46:12.133Z,47.63
2022-10-03T09:47:12.355Z,48.35
2022-10-03T09:48:12.469Z,49.55
2022-10-03T09:49:12.660Z,49.17
2022-10-03T09:50:12.800Z,49.67
2022-10-03T09:51:13.009Z,49.69
2022-10-03T09:52:13.160Z,50.39
2022-10-03T09:53:13.361Z,50.20
2022-10-03T09:54:13.498Z,50.17
2022-10-03T09:55:13.700Z,49.90
2022-10-03T09:56:13.897Z,50.57
2022-10-03T09:57:14.098Z,49.90
2022-10-03T09:58:14.300Z,50.49
2022-10-03T09:59:14.429Z,50.09
2022-10-03T10:00:14.629Z,50.39
2022-10-03T10:01:14.880Z,50.59
2022-10-03T10:02:14.961Z,49.91
2022-10-03T10:03:15.161Z,50.72
2022-10-03T10:04:15.320Z,50.42
2022-10-03T10:05:15.441Z,50.64
2022-10-03T10:06:15.632Z,51.25
2022-10-03T10:07:15.839Z,50.92
2022-10-03T10:08:16.031Z,51.72
2022-10-03T10:09:16.224Z,51.02
2022-10-03T10:10:16.345Z,50.79
2022-10-03T10:11:16.482Z,50.52
2022-10-03T10:12:16.677Z,50.82
2022-10-03T10:13:16.886Z,50.32
2022-10-03T10:14:16.993Z,51.22
2022-10-03T10:15:17.153Z,50.22
2022-10-03T10:16:17.403Z,51.20
2022-10-03T10:17:17.542Z,50.79
2022-10-03T10:18:17.753Z,50.99
2022-10-03T10:19:17.893Z,50.59
2022-10-03T10:20:18.084Z,50.39
2022-10-03T10:21:18.223Z,50.20
2022-10-03T10:22:18.412Z,50.32
2022-10-03T10:23:18.616Z,50.52
2022-10-03T10:24:18.744Z,50.72
2022-10-03T10:25:18.884Z,51.14
2022-10-03T10:26:19.073Z,51.25
2022-10-03T10:27:19.234Z,50.64
2022-10-03T10:28:19.506Z,51.34
2022-10-03T10:29:19.606Z,51.34
2022-10-03T10:30:19.763Z,51.25
2022-10-03T10:31:19.980Z,51.44
2022-10-03T10:32:21.709Z,52.27
2022-10-03T10:33:20.275Z,51.99
2022-10-03T10:34:20.471Z,52.39
2022-10-03T10:35:20.634Z,53.09
2022-10-03T10:36:20.776Z,53.69
2022-10-03T10:37:20.964Z,53.39
2022-10-03T10:38:21.137Z,53.39
2022-10-03T10:39:21.367Z,52.97
2022-10-03T10:40:21.495Z,52.77
2022-10-03T10:41:21.616Z,52.74
2022-10-03T10:42:24.002Z,52.14
2022-10-03T10:43:22.065Z,51.72
2022-10-03T10:44:22.163Z,51.42
2022-10-03T10:45:22.395Z,51.72
2022-10-03T10:46:22.605Z,51.32
2022-10-03T10:47:22.735Z,51.22
2022-10-03T10:48:22.926Z,52.22
2022-10-03T10:49:23.067Z,52.14
2022-10-03T10:50:23.256Z,51.94
2022-10-03T10:51:23.456Z,52.87
2022-10-03T10:52:23.596Z,52.57
2022-10-03T10:53:23.859Z,52.77
2022-10-03T10:54:23.955Z,53.19
2022-10-03T10:55:24.123Z,53.89
2022-10-03T10:56:24.286Z,54.30
2022-10-03T10:57:24.463Z,54.93
2022-10-03T10:58:24.619Z,55.43
2022-10-03T10:59:24.765Z,56.05
2022-10-03T11:00:24.992Z,56.65
2022-10-03T11:01:25.187Z,56.56
2022-10-03T11:02:25.288Z,56.85
2022-10-03T11:03:25.598Z,56.85
2022-10-03T11:04:25.732Z,57.13
2022-10-03T11:05:25.849Z,56.52
2022-10-03T11:06:26.033Z,56.63
2022-10-03T11:07:26.248Z,56.33
2022-10-03T11:08:26.390Z,56.33
2022-10-03T11:09:26.589Z,56.52
2022-10-03T11:10:26.779Z,56.85
2022-10-03T11:11:26.928Z,57.06
2022-10-03T11:12:27.115Z,57.33
2022-10-03T11:13:28.556Z,56.93
2022-10-03T11:14:27.453Z,57.00
2022-10-03T11:15:27.650Z,56.70
2022-10-03T11:16:27.900Z,56.27
2022-10-03T11:17:27.981Z,55.77
2022-10-03T11:18:28.182Z,55.67
2022-10-03T11:19:28.319Z,55.57
2022-10-03T11:20:28.512Z,55.55
2022-10-03T11:21:28.709Z,55.35
2022-10-03T11:22:28.840Z,55.35
2022-10-03T11:23:29.038Z,55.85
2022-10-03T11:24:29.161Z,55.47
2022-10-03T11:25:29.378Z,55.87
2022-10-03T11:26:29.489Z,56.27
2022-10-03T11:27:29.699Z,56.57
2022-10-03T11:28:29.940Z,56.48
2022-10-03T11:29:30.059Z,56.48
2022-10-03T11:30:30.250Z,56.37
2022-10-03T11:31:30.455Z,56.67
2022-10-03T11:32:30.594Z,56.87
2022-10-03T11:33:30.787Z,56.87
2022-10-03T11:34:30.920Z,56.98
2022-10-03T11:35:31.123Z,56.57
2022-10-03T11:36:31.320Z,56.57
2022-10-03T11:37:31.520Z,56.48
2022-10-03T11:38:31.720Z,55.47
2022-10-03T11:39:31.791Z,55.57
2022-10-03T11:40:31.980Z,55.80
2022-10-03T11:41:32.190Z,55.80
2022-10-03T11:42:32.362Z,55.80
2022-10-03T11:43:32.542Z,56.30
2022-10-03T11:44:32.713Z,55.40
2022-10-03T11:45:32.876Z,55.70
2022-10-03T11:46:33.080Z,55.40
2022-10-03T11:47:33.253Z,55.70
2022-10-03T11:48:33.451Z,56.20
2022-10-03T11:49:33.579Z,55.70
2022-10-03T11:50:33.713Z,55.80
2022-10-03T11:51:33.920Z,55.70
2022-10-03T11:52:34.061Z,55.80
2022-10-03T11:53:34.261Z,56.00
2022-10-03T11:54:34.412Z,55.90
2022-10-03T11:55:34.571Z,56.30
2022-10-03T11:56:34.754Z,56.00
2022-10-03T11:57:34.941Z,56.02
2022-10-03T11:58:35.164Z,56.52
2022-10-03T11:59:35.302Z,56.63
2022-10-03T12:00:35.463Z,57.23
2022-10-03T12:01:35.632Z,57.06
2022-10-03T12:02:35.852Z,57.76
2022-10-03T12:03:36.088Z,57.96
2022-10-03T12:04:36.169Z,57.96
2022-10-03T12:05:36.330Z,57.66
2022-10-03T12:06:36.841Z,57.76
2022-10-03T12:07:36.703Z,57.83
2022-10-03T12:08:36.888Z,57.53
2022-10-03T12:09:37.071Z,57.73
2022-10-03T12:10:37.210Z,58.03
2022-10-03T12:11:37.639Z,57.73
2022-10-03T12:12:37.554Z,57.56
2022-10-03T12:13:37.734Z,57.56
2022-10-03T12:14:37.864Z,57.76
2022-10-03T12:15:38.104Z,57.96
2022-10-03T12:16:38.305Z,57.96
2022-10-03T12:17:38.443Z,57.56
2022-10-03T12:18:38.594Z,57.43
2022-10-03T12:19:38.781Z,56.73
2022-10-03T12:20:38.974Z,56.83
2022-10-03T12:21:39.415Z,56.73
2022-10-03T12:22:39.270Z,56.63
2022-10-03T12:23:39.454Z,56.50
2022-10-03T12:24:39.665Z,56.50
2022-10-03T12:25:39.787Z,56.60
2022-10-03T12:26:39.944Z,57.00
2022-10-03T12:27:40.116Z,56.20
2022-10-03T12:28:40.317Z,56.40
2022-10-03T12:29:40.479Z,56.10
2022-10-03T12:30:40.688Z,56.00
2022-10-03T12:31:41.146Z,56.00
2022-10-03T12:32:41.034Z,55.67
2022-10-03T12:33:41.135Z,55.27
2022-10-03T12:34:41.355Z,54.67
2022-10-03T12:35:41.536Z,54.67
2022-10-03T12:36:41.666Z,54.37
2022-10-03T12:37:41.855Z,53.87
2022-10-03T12:38:42.067Z,54.07
2022-10-03T12:39:42.184Z,54.77
2022-10-03T12:40:42.396Z,54.57
2022-10-03T12:41:42.824Z,53.77
2022-10-03T12:42:42.745Z,53.77
2022-10-03T12:43:42.925Z,54.37
2022-10-03T12:44:43.077Z,54.07
2022-10-03T12:45:43.307Z,53.87
2022-10-03T12:46:43.457Z,53.67
2022-10-03T12:47:55.410Z,53.37
2022-10-03T12:48:44.827Z,53.17
2022-10-03T12:49:43.985Z,53.17
2022-10-03T12:50:44.119Z,53.17
2022-10-03T12:51:44.296Z,52.07
2022-10-03T12:52:44.488Z,52.47
2022-10-03T12:53:44.685Z,52.89
2022-10-03T12:54:44.837Z,53.09
2022-10-03T12:55:45.029Z,53.00